sensor_id;sensor_type;location;lat;lon;timestamp;P1;durP1;ratioP1;P2;durP2;ratioP2
37201;SDS011;37799;52.390;6.136;2022-10-01T00:00:10;5.13;;;1.85;;
37201;SDS011;37799;52.390;6.136;2022-10-01T00:02:39;5.30;;;1.60;;
37201;SDS011;37799;52.390;6.136;2022-10-01T00:05:05;6.32;;;1.83;;
37201;SDS011;37799;52.390;6.136;2022-10-01T00:07:37;7.88;;;1.88;;
37201;SDS011;37799;52.390;6.136;2022-10-01T00:10:08;5.47;;;1.65;;
37201;SDS011;37799;52.390;6.136;2022-10-01T00:12:35;7.85;;;2.05;;
37201;SDS011;37799;52.390;6.136;2022-10-01T00:15:01;5.88;;;1.98;;
37201;SDS011;37799;52.390;6.136;2022-10-01T00:17:27;8.55;;;2.63;;
37201;SDS011;37799;52.390;6.136;2022-10-01T00:19:52;6.47;;;2.25;;
37201;SDS011;37799;52.390;6.136;2022-10-01T00:22:18;7.97;;;2.08;;
37201;SDS011;37799;52.390;6.136;2022-10-01T00:24:43;6.13;;;2.03;;
37201;SDS011;37799;52.390;6.136;2022-10-01T00:27:10;5.93;;;2.10;;
37201;SDS011;37799;52.390;6.136;2022-10-01T00:29:36;9.73;;;2.22;;
37201;SDS011;37799;52.390;6.136;2022-10-01T00:32:02;5.88;;;1.83;;
37201;SDS011;37799;52.390;6.136;2022-10-01T00:34:27;6.03;;;2.15;;
37201;SDS011;37799;52.390;6.136;2022-10-01T00:36:52;6.53;;;2.60;;
37201;SDS011;37799;52.390;6.136;2022-10-01T00:39:18;5.85;;;2.10;;
37201;SDS011;37799;52.390;6.136;2022-10-01T00:41:44;7.60;;;2.28;;
37201;SDS011;37799;52.390;6.136;2022-10-01T00:44:26;6.30;;;2.22;;
37201;SDS011;37799;52.390;6.136;2022-10-01T00:46:56;7.85;;;2.88;;
37201;SDS011;37799;52.390;6.136;2022-10-01T00:49:26;5.95;;;2.13;;
37201;SDS011;37799;52.390;6.136;2022-10-01T00:51:59;6.57;;;2.28;;
37201;SDS011;37799;52.390;6.136;2022-10-01T00:57:27;5.90;;;2.00;;
37201;SDS011;37799;52.390;6.136;2022-10-01T00:59:54;6.60;;;2.10;;
37201;SDS011;37799;52.390;6.136;2022-10-01T01:02:22;7.22;;;1.77;;
37201;SDS011;37799;52.390;6.136;2022-10-01T01:04:47;5.75;;;1.85;;
37201;SDS011;37799;52.390;6.136;2022-10-01T01:07:12;6.38;;;2.03;;
37201;SDS011;37799;52.390;6.136;2022-10-01T01:09:40;7.78;;;2.33;;
37201;SDS011;37799;52.390;6.136;2022-10-01T01:17:34;7.90;;;2.47;;
37201;SDS011;37799;52.390;6.136;2022-10-01T01:25:54;6.20;;;2.20;;
37201;SDS011;37799;52.390;6.136;2022-10-01T01:28:24;6.43;;;2.25;;
37201;SDS011;37799;52.390;6.136;2022-10-01T01:31:18;7.85;;;2.20;;
37201;SDS011;37799;52.390;6.136;2022-10-01T01:33:46;5.77;;;2.07;;
37201;SDS011;37799;52.390;6.136;2022-10-01T01:36:16;6.65;;;2.15;;
37201;SDS011;37799;52.390;6.136;2022-10-01T01:38:46;7.68;;;2.33;;
37201;SDS011;37799;52.390;6.136;2022-10-01T01:41:19;5.38;;;1.70;;
37201;SDS011;37799;52.390;6.136;2022-10-01T01:43:48;6.05;;;1.85;;
37201;SDS011;37799;52.390;6.136;2022-10-01T01:46:17;4.82;;;1.65;;
37201;SDS011;37799;52.390;6.136;2022-10-01T01:48:44;5.65;;;1.95;;
37201;SDS011;37799;52.390;6.136;2022-10-01T01:51:26;6.88;;;2.22;;
37201;SDS011;37799;52.390;6.136;2022-10-01T01:54:07;5.60;;;1.80;;
37201;SDS011;37799;52.390;6.136;2022-10-01T01:56:33;7.50;;;1.98;;
37201;SDS011;37799;52.390;6.136;2022-10-01T01:58:58;5.47;;;1.70;;
37201;SDS011;37799;52.390;6.136;2022-10-01T02:01:35;5.65;;;1.73;;
37201;SDS011;37799;52.390;6.136;2022-10-01T02:04:03;4.57;;;1.48;;
37201;SDS011;37799;52.390;6.136;2022-10-01T02:09:44;4.30;;;1.33;;
37201;SDS011;37799;52.390;6.136;2022-10-01T02:12:33;7.18;;;1.85;;
37201;SDS011;37799;52.390;6.136;2022-10-01T02:15:19;6.00;;;1.88;;
37201;SDS011;37799;52.390;6.136;2022-10-01T02:20:53;4.38;;;1.38;;
37201;SDS011;37799;52.390;6.136;2022-10-01T02:23:27;4.07;;;1.10;;
37201;SDS011;37799;52.390;6.136;2022-10-01T02:26:00;5.32;;;1.58;;
37201;SDS011;37799;52.390;6.136;2022-10-01T02:28:28;5.15;;;1.60;;
37201;SDS011;37799;52.390;6.136;2022-10-01T02:30:57;4.65;;;1.27;;
37201;SDS011;37799;52.390;6.136;2022-10-01T02:33:25;5.88;;;1.65;;
37201;SDS011;37799;52.390;6.136;2022-10-01T02:35:54;5.65;;;1.33;;
37201;SDS011;37799;52.390;6.136;2022-10-01T02:38:21;5.85;;;1.33;;
37201;SDS011;37799;52.390;6.136;2022-10-01T02:40:49;5.18;;;1.52;;
37201;SDS011;37799;52.390;6.136;2022-10-01T02:43:19;4.65;;;1.25;;
37201;SDS011;37799;52.390;6.136;2022-10-01T02:45:54;3.28;;;0.90;;
37201;SDS011;37799;52.390;6.136;2022-10-01T02:48:24;3.50;;;1.17;;
37201;SDS011;37799;52.390;6.136;2022-10-01T02:50:56;4.35;;;1.00;;
37201;SDS011;37799;52.390;6.136;2022-10-01T02:53:34;4.63;;;1.63;;
37201;SDS011;37799;52.390;6.136;2022-10-01T02:56:05;5.40;;;1.45;;
37201;SDS011;37799;52.390;6.136;2022-10-01T02:58:32;4.50;;;1.42;;
37201;SDS011;37799;52.390;6.136;2022-10-01T03:00:57;4.25;;;1.00;;
37201;SDS011;37799;52.390;6.136;2022-10-01T03:03:23;3.53;;;1.00;;
37201;SDS011;37799;52.390;6.136;2022-10-01T03:05:50;4.80;;;1.40;;
37201;SDS011;37799;52.390;6.136;2022-10-01T03:08:15;4.10;;;1.20;;
37201;SDS011;37799;52.390;6.136;2022-10-01T03:10:40;3.88;;;1.10;;
37201;SDS011;37799;52.390;6.136;2022-10-01T03:13:06;3.83;;;1.00;;
37201;SDS011;37799;52.390;6.136;2022-10-01T03:15:31;3.97;;;0.80;;
37201;SDS011;37799;52.390;6.136;2022-10-01T03:17:57;3.10;;;0.80;;
37201;SDS011;37799;52.390;6.136;2022-10-01T03:20:22;3.40;;;0.80;;
37201;SDS011;37799;52.390;6.136;2022-10-01T03:22:47;1.73;;;0.50;;
37201;SDS011;37799;52.390;6.136;2022-10-01T03:25:13;2.40;;;0.60;;
37201;SDS011;37799;52.390;6.136;2022-10-01T03:27:39;1.92;;;0.50;;
37201;SDS011;37799;52.390;6.136;2022-10-01T03:30:05;2.13;;;0.60;;
37201;SDS011;37799;52.390;6.136;2022-10-01T03:32:31;2.05;;;0.55;;
37201;SDS011;37799;52.390;6.136;2022-10-01T03:34:57;2.67;;;0.70;;
37201;SDS011;37799;52.390;6.136;2022-10-01T03:37:22;3.15;;;0.50;;
37201;SDS011;37799;52.390;6.136;2022-10-01T03:39:48;1.80;;;0.50;;
37201;SDS011;37799;52.390;6.136;2022-10-01T03:42:13;2.20;;;0.50;;
37201;SDS011;37799;52.390;6.136;2022-10-01T03:44:40;1.63;;;0.25;;
37201;SDS011;37799;52.390;6.136;2022-10-01T03:47:06;1.70;;;0.40;;
37201;SDS011;37799;52.390;6.136;2022-10-01T03:49:32;2.00;;;0.57;;
37201;SDS011;37799;52.390;6.136;2022-10-01T03:51:58;0.70;;;0.20;;
37201;SDS011;37799;52.390;6.136;2022-10-01T03:54:23;2.00;;;0.40;;
37201;SDS011;37799;52.390;6.136;2022-10-01T03:56:49;2.00;;;0.30;;
37201;SDS011;37799;52.390;6.136;2022-10-01T03:59:14;0.73;;;0.20;;
37201;SDS011;37799;52.390;6.136;2022-10-01T04:01:40;1.83;;;0.38;;
37201;SDS011;37799;52.390;6.136;2022-10-01T04:04:05;1.13;;;0.17;;
37201;SDS011;37799;52.390;6.136;2022-10-01T04:06:31;1.50;;;0.30;;
37201;SDS011;37799;52.390;6.136;2022-10-01T04:08:56;1.05;;;0.20;;
37201;SDS011;37799;52.390;6.136;2022-10-01T04:11:22;1.15;;;0.20;;
37201;SDS011;37799;52.390;6.136;2022-10-01T04:13:48;1.63;;;0.45;;
37201;SDS011;37799;52.390;6.136;2022-10-01T04:16:13;1.17;;;0.28;;
37201;SDS011;37799;52.390;6.136;2022-10-01T04:18:40;1.42;;;0.30;;
37201;SDS011;37799;52.390;6.136;2022-10-01T04:21:05;1.67;;;0.40;;
37201;SDS011;37799;52.390;6.136;2022-10-01T04:23:31;1.38;;;0.32;;
37201;SDS011;37799;52.390;6.136;2022-10-01T04:25:59;2.25;;;0.50;;
37201;SDS011;37799;52.390;6.136;2022-10-01T04:28:26;2.08;;;0.60;;
37201;SDS011;37799;52.390;6.136;2022-10-01T04:30:52;2.47;;;0.40;;
37201;SDS011;37799;52.390;6.136;2022-10-01T04:33:37;2.40;;;0.60;;
37201;SDS011;37799;52.390;6.136;2022-10-01T04:36:02;2.03;;;0.60;;
37201;SDS011;37799;52.390;6.136;2022-10-01T04:38:28;1.70;;;0.40;;
37201;SDS011;37799;52.390;6.136;2022-10-01T04:40:53;3.15;;;0.90;;
37201;SDS011;37799;52.390;6.136;2022-10-01T04:43:18;1.58;;;0.38;;
37201;SDS011;37799;52.390;6.136;2022-10-01T04:45:44;2.30;;;0.40;;
37201;SDS011;37799;52.390;6.136;2022-10-01T04:48:09;1.77;;;0.50;;
37201;SDS011;37799;52.390;6.136;2022-10-01T04:50:34;2.20;;;0.60;;
37201;SDS011;37799;52.390;6.136;2022-10-01T04:52:59;2.75;;;0.65;;
37201;SDS011;37799;52.390;6.136;2022-10-01T04:55:25;2.53;;;0.65;;
37201;SDS011;37799;52.390;6.136;2022-10-01T04:57:50;2.53;;;0.75;;
37201;SDS011;37799;52.390;6.136;2022-10-01T05:00:17;2.65;;;0.80;;
37201;SDS011;37799;52.390;6.136;2022-10-01T05:02:44;2.65;;;0.70;;
37201;SDS011;37799;52.390;6.136;2022-10-01T05:05:11;2.83;;;0.80;;
37201;SDS011;37799;52.390;6.136;2022-10-01T05:07:37;3.20;;;0.95;;
37201;SDS011;37799;52.390;6.136;2022-10-01T05:10:03;2.58;;;0.90;;
37201;SDS011;37799;52.390;6.136;2022-10-01T05:12:29;2.75;;;0.65;;
37201;SDS011;37799;52.390;6.136;2022-10-01T05:14:55;2.08;;;0.60;;
37201;SDS011;37799;52.390;6.136;2022-10-01T05:17:20;3.35;;;0.75;;
37201;SDS011;37799;52.390;6.136;2022-10-01T05:19:46;3.03;;;0.80;;
37201;SDS011;37799;52.390;6.136;2022-10-01T05:22:12;3.40;;;0.90;;
37201;SDS011;37799;52.390;6.136;2022-10-01T05:24:39;3.90;;;1.02;;
37201;SDS011;37799;52.390;6.136;2022-10-01T05:27:05;2.80;;;0.80;;
37201;SDS011;37799;52.390;6.136;2022-10-01T05:29:37;2.97;;;1.00;;
37201;SDS011;37799;52.390;6.136;2022-10-01T05:32:06;3.03;;;1.00;;
37201;SDS011;37799;52.390;6.136;2022-10-01T05:34:36;3.53;;;1.00;;
37201;SDS011;37799;52.390;6.136;2022-10-01T05:37:01;4.18;;;0.90;;
37201;SDS011;37799;52.390;6.136;2022-10-01T05:39:27;4.78;;;1.25;;
37201;SDS011;37799;52.390;6.136;2022-10-01T05:41:53;3.53;;;1.23;;
37201;SDS011;37799;52.390;6.136;2022-10-01T05:44:20;5.82;;;1.38;;
37201;SDS011;37799;52.390;6.136;2022-10-01T05:46:48;4.43;;;1.38;;
37201;SDS011;37799;52.390;6.136;2022-10-01T05:49:14;4.15;;;1.40;;
37201;SDS011;37799;52.390;6.136;2022-10-01T05:51:41;4.43;;;1.40;;
37201;SDS011;37799;52.390;6.136;2022-10-01T05:54:07;4.57;;;1.52;;
37201;SDS011;37799;52.390;6.136;2022-10-01T05:56:32;4.35;;;1.23;;
37201;SDS011;37799;52.390;6.136;2022-10-01T05:58:57;4.90;;;1.40;;
37201;SDS011;37799;52.390;6.136;2022-10-01T06:01:23;4.47;;;1.38;;
37201;SDS011;37799;52.390;6.136;2022-10-01T06:03:52;4.78;;;1.73;;
37201;SDS011;37799;52.390;6.136;2022-10-01T06:06:23;5.43;;;2.08;;
37201;SDS011;37799;52.390;6.136;2022-10-01T06:08:50;4.80;;;1.70;;
37201;SDS011;37799;52.390;6.136;2022-10-01T06:11:16;5.75;;;1.95;;
37201;SDS011;37799;52.390;6.136;2022-10-01T06:13:42;5.35;;;2.00;;
37201;SDS011;37799;52.390;6.136;2022-10-01T06:16:09;4.95;;;1.98;;
37201;SDS011;37799;52.390;6.136;2022-10-01T06:18:35;5.22;;;2.15;;
37201;SDS011;37799;52.390;6.136;2022-10-01T06:21:00;6.25;;;1.98;;
37201;SDS011;37799;52.390;6.136;2022-10-01T06:23:26;5.38;;;1.98;;
37201;SDS011;37799;52.390;6.136;2022-10-01T06:25:51;5.57;;;2.00;;
37201;SDS011;37799;52.390;6.136;2022-10-01T06:28:16;4.93;;;2.00;;
37201;SDS011;37799;52.390;6.136;2022-10-01T06:30:43;5.95;;;1.90;;
37201;SDS011;37799;52.390;6.136;2022-10-01T06:33:12;6.45;;;2.50;;
37201;SDS011;37799;52.390;6.136;2022-10-01T06:35:40;6.10;;;2.17;;
37201;SDS011;37799;52.390;6.136;2022-10-01T06:38:09;5.55;;;1.95;;
37201;SDS011;37799;52.390;6.136;2022-10-01T06:40:35;5.18;;;2.05;;
37201;SDS011;37799;52.390;6.136;2022-10-01T06:43:01;5.70;;;2.38;;
37201;SDS011;37799;52.390;6.136;2022-10-01T06:45:27;7.10;;;2.47;;
37201;SDS011;37799;52.390;6.136;2022-10-01T06:47:54;7.10;;;2.55;;
37201;SDS011;37799;52.390;6.136;2022-10-01T06:50:21;5.68;;;2.15;;
37201;SDS011;37799;52.390;6.136;2022-10-01T06:52:48;4.35;;;1.67;;
37201;SDS011;37799;52.390;6.136;2022-10-01T06:55:16;5.65;;;2.28;;
37201;SDS011;37799;52.390;6.136;2022-10-01T06:57:42;9.50;;;2.88;;
37201;SDS011;37799;52.390;6.136;2022-10-01T07:00:08;8.98;;;2.80;;
37201;SDS011;37799;52.390;6.136;2022-10-01T07:02:34;7.70;;;2.70;;
37201;SDS011;37799;52.390;6.136;2022-10-01T07:05:00;7.72;;;2.58;;
37201;SDS011;37799;52.390;6.136;2022-10-01T07:07:29;6.88;;;2.70;;
37201;SDS011;37799;52.390;6.136;2022-10-01T07:09:59;6.47;;;2.60;;
37201;SDS011;37799;52.390;6.136;2022-10-01T07:12:26;6.60;;;2.78;;
37201;SDS011;37799;52.390;6.136;2022-10-01T07:14:52;7.70;;;3.00;;
37201;SDS011;37799;52.390;6.136;2022-10-01T07:17:17;9.27;;;3.10;;
37201;SDS011;37799;52.390;6.136;2022-10-01T07:19:43;6.75;;;2.63;;
37201;SDS011;37799;52.390;6.136;2022-10-01T07:22:08;8.25;;;2.95;;
37201;SDS011;37799;52.390;6.136;2022-10-01T07:24:33;7.22;;;2.95;;
37201;SDS011;37799;52.390;6.136;2022-10-01T07:26:59;7.63;;;3.15;;
37201;SDS011;37799;52.390;6.136;2022-10-01T07:29:24;9.05;;;3.70;;
37201;SDS011;37799;52.390;6.136;2022-10-01T07:31:50;9.82;;;3.70;;
37201;SDS011;37799;52.390;6.136;2022-10-01T07:34:21;10.13;;;3.70;;
37201;SDS011;37799;52.390;6.136;2022-10-01T07:36:49;10.18;;;3.63;;
37201;SDS011;37799;52.390;6.136;2022-10-01T07:39:15;6.80;;;2.90;;
37201;SDS011;37799;52.390;6.136;2022-10-01T07:41:40;5.28;;;2.22;;
37201;SDS011;37799;52.390;6.136;2022-10-01T07:44:06;8.07;;;2.53;;
37201;SDS011;37799;52.390;6.136;2022-10-01T07:46:31;5.13;;;2.03;;
37201;SDS011;37799;52.390;6.136;2022-10-01T07:48:57;7.47;;;2.17;;
37201;SDS011;37799;52.390;6.136;2022-10-01T07:51:22;5.60;;;2.00;;
37201;SDS011;37799;52.390;6.136;2022-10-01T07:53:48;5.75;;;1.95;;
37201;SDS011;37799;52.390;6.136;2022-10-01T07:56:14;5.47;;;1.67;;
37201;SDS011;37799;52.390;6.136;2022-10-01T07:58:40;8.35;;;2.13;;
37201;SDS011;37799;52.390;6.136;2022-10-01T08:01:06;6.60;;;1.73;;
37201;SDS011;37799;52.390;6.136;2022-10-01T08:03:33;5.03;;;1.38;;
37201;SDS011;37799;52.390;6.136;2022-10-01T08:05:59;4.75;;;1.65;;
37201;SDS011;37799;52.390;6.136;2022-10-01T08:08:27;4.78;;;1.40;;
37201;SDS011;37799;52.390;6.136;2022-10-01T08:10:54;3.25;;;1.02;;
37201;SDS011;37799;52.390;6.136;2022-10-01T08:13:19;3.05;;;0.88;;
37201;SDS011;37799;52.390;6.136;2022-10-01T08:15:48;4.22;;;1.15;;
37201;SDS011;37799;52.390;6.136;2022-10-01T08:18:17;3.65;;;1.00;;
37201;SDS011;37799;52.390;6.136;2022-10-01T08:20:43;4.22;;;0.82;;
37201;SDS011;37799;52.390;6.136;2022-10-01T08:23:09;3.72;;;0.98;;
37201;SDS011;37799;52.390;6.136;2022-10-01T08:25:39;3.65;;;1.20;;
37201;SDS011;37799;52.390;6.136;2022-10-01T08:28:06;3.95;;;0.85;;
37201;SDS011;37799;52.390;6.136;2022-10-01T08:30:33;2.78;;;0.85;;
37201;SDS011;37799;52.390;6.136;2022-10-01T08:33:00;3.33;;;1.00;;
37201;SDS011;37799;52.390;6.136;2022-10-01T08:35:26;2.85;;;0.90;;
37201;SDS011;37799;52.390;6.136;2022-10-01T08:37:52;2.55;;;0.80;;
37201;SDS011;37799;52.390;6.136;2022-10-01T08:40:20;2.90;;;0.82;;
37201;SDS011;37799;52.390;6.136;2022-10-01T08:45:48;2.20;;;0.60;;
37201;SDS011;37799;52.390;6.136;2022-10-01T08:48:25;3.35;;;1.23;;
37201;SDS011;37799;52.390;6.136;2022-10-01T08:51:11;3.35;;;0.77;;
37201;SDS011;37799;52.390;6.136;2022-10-01T08:54:02;5.18;;;0.73;;
37201;SDS011;37799;52.390;6.136;2022-10-01T08:56:33;2.60;;;0.38;;
37201;SDS011;37799;52.390;6.136;2022-10-01T08:59:03;3.15;;;0.55;;
37201;SDS011;37799;52.390;6.136;2022-10-01T09:01:38;2.80;;;0.50;;
37201;SDS011;37799;52.390;6.136;2022-10-01T09:04:03;6.35;;;0.98;;
37201;SDS011;37799;52.390;6.136;2022-10-01T09:06:29;5.68;;;0.77;;
37201;SDS011;37799;52.390;6.136;2022-10-01T09:19:23;1.65;;;0.30;;
37201;SDS011;37799;52.390;6.136;2022-10-01T09:24:32;1.48;;;0.15;;
37201;SDS011;37799;52.390;6.136;2022-10-01T09:27:08;0.95;;;0.10;;
37201;SDS011;37799;52.390;6.136;2022-10-01T09:30:00;1.02;;;0.10;;
37201;SDS011;37799;52.390;6.136;2022-10-01T09:32:40;3.90;;;0.20;;
37201;SDS011;37799;52.390;6.136;2022-10-01T09:35:17;1.83;;;0.20;;
37201;SDS011;37799;52.390;6.136;2022-10-01T09:38:01;1.02;;;0.10;;
37201;SDS011;37799;52.390;6.136;2022-10-01T09:40:37;2.20;;;0.15;;
37201;SDS011;37799;52.390;6.136;2022-10-01T09:43:19;2.13;;;0.20;;
37201;SDS011;37799;52.390;6.136;2022-10-01T09:45:47;1.67;;;0.30;;
37201;SDS011;37799;52.390;6.136;2022-10-01T09:48:16;3.88;;;0.32;;
37201;SDS011;37799;52.390;6.136;2022-10-01T09:50:45;2.13;;;0.30;;
37201;SDS011;37799;52.390;6.136;2022-10-01T09:53:27;1.45;;;0.40;;
37201;SDS011;37799;52.390;6.136;2022-10-01T09:56:01;3.53;;;0.45;;
37201;SDS011;37799;52.390;6.136;2022-10-01T09:58:31;3.22;;;0.38;;
37201;SDS011;37799;52.390;6.136;2022-10-01T10:01:00;3.42;;;0.80;;
37201;SDS011;37799;52.390;6.136;2022-10-01T10:03:27;2.33;;;0.50;;
37201;SDS011;37799;52.390;6.136;2022-10-01T10:05:55;3.03;;;0.30;;
37201;SDS011;37799;52.390;6.136;2022-10-01T10:10:57;2.30;;;0.32;;
37201;SDS011;37799;52.390;6.136;2022-10-01T10:16:36;2.28;;;0.50;;
37201;SDS011;37799;52.390;6.136;2022-10-01T10:21:34;1.10;;;0.30;;
37201;SDS011;37799;52.390;6.136;2022-10-01T10:24:00;2.25;;;0.40;;
37201;SDS011;37799;52.390;6.136;2022-10-01T10:26:32;2.05;;;0.30;;
37201;SDS011;37799;52.390;6.136;2022-10-01T10:28:59;1.55;;;0.30;;
37201;SDS011;37799;52.390;6.136;2022-10-01T10:31:47;4.35;;;0.52;;
37201;SDS011;37799;52.390;6.136;2022-10-01T10:34:19;2.17;;;0.57;;
37201;SDS011;37799;52.390;6.136;2022-10-01T10:36:55;2.10;;;0.30;;
37201;SDS011;37799;52.390;6.136;2022-10-01T10:39:23;2.10;;;0.47;;
37201;SDS011;37799;52.390;6.136;2022-10-01T10:41:54;1.65;;;0.40;;
37201;SDS011;37799;52.390;6.136;2022-10-01T10:44:21;2.60;;;0.55;;
37201;SDS011;37799;52.390;6.136;2022-10-01T10:46:50;2.15;;;0.57;;
37201;SDS011;37799;52.390;6.136;2022-10-01T10:51:54;6.57;;;0.90;;
37201;SDS011;37799;52.390;6.136;2022-10-01T10:56:55;1.52;;;0.30;;
37201;SDS011;37799;52.390;6.136;2022-10-01T10:59:26;2.13;;;0.10;;
37201;SDS011;37799;52.390;6.136;2022-10-01T11:01:53;0.60;;;0.10;;
37201;SDS011;37799;52.390;6.136;2022-10-01T11:04:21;3.72;;;0.38;;
37201;SDS011;37799;52.390;6.136;2022-10-01T11:06:55;1.80;;;0.10;;
37201;SDS011;37799;52.390;6.136;2022-10-01T11:12:06;3.33;;;0.10;;
37201;SDS011;37799;52.390;6.136;2022-10-01T11:20:02;2.92;;;0.20;;
37201;SDS011;37799;52.390;6.136;2022-10-01T11:29:00;0.85;;;0.20;;
37201;SDS011;37799;52.390;6.136;2022-10-01T11:31:36;4.50;;;0.30;;
37201;SDS011;37799;52.390;6.136;2022-10-01T11:39:35;2.20;;;0.20;;
37201;SDS011;37799;52.390;6.136;2022-10-01T11:42:07;2.00;;;0.30;;
37201;SDS011;37799;52.390;6.136;2022-10-01T11:47:20;2.22;;;0.30;;
37201;SDS011;37799;52.390;6.136;2022-10-01T11:49:52;3.53;;;0.35;;
37201;SDS011;37799;52.390;6.136;2022-10-01T11:52:21;1.08;;;0.17;;
37201;SDS011;37799;52.390;6.136;2022-10-01T11:55:01;3.92;;;0.50;;
37201;SDS011;37799;52.390;6.136;2022-10-01T11:57:57;1.70;;;0.20;;
37201;SDS011;37799;52.390;6.136;2022-10-01T12:00:53;3.33;;;0.10;;
37201;SDS011;37799;52.390;6.136;2022-10-01T12:03:24;1.60;;;0.10;;
37201;SDS011;37799;52.390;6.136;2022-10-01T12:05:58;3.65;;;0.40;;
37201;SDS011;37799;52.390;6.136;2022-10-01T12:08:27;2.88;;;0.13;;
37201;SDS011;37799;52.390;6.136;2022-10-01T12:10:59;3.42;;;0.28;;
37201;SDS011;37799;52.390;6.136;2022-10-01T12:13:38;0.57;;;0.10;;
37201;SDS011;37799;52.390;6.136;2022-10-01T12:16:16;0.93;;;0.17;;
37201;SDS011;37799;52.390;6.136;2022-10-01T12:18:58;1.95;;;0.20;;
37201;SDS011;37799;52.390;6.136;2022-10-01T12:21:31;1.13;;;0.10;;
37201;SDS011;37799;52.390;6.136;2022-10-01T12:24:03;2.10;;;0.25;;
37201;SDS011;37799;52.390;6.136;2022-10-01T12:26:50;1.42;;;0.05;;
37201;SDS011;37799;52.390;6.136;2022-10-01T12:29:41;3.88;;;0.20;;
37201;SDS011;37799;52.390;6.136;2022-10-01T12:43:45;1.25;;;0.10;;
37201;SDS011;37799;52.390;6.136;2022-10-01T12:57:34;2.08;;;0.10;;
37201;SDS011;37799;52.390;6.136;2022-10-01T13:06:07;1.17;;;0.40;;
37201;SDS011;37799;52.390;6.136;2022-10-01T13:08:42;4.53;;;0.47;;
37201;SDS011;37799;52.390;6.136;2022-10-01T13:11:35;1.83;;;0.05;;
37201;SDS011;37799;52.390;6.136;2022-10-01T13:14:16;2.83;;;0.28;;
37201;SDS011;37799;52.390;6.136;2022-10-01T13:16:53;3.30;;;0.28;;
37201;SDS011;37799;52.390;6.136;2022-10-01T13:30:28;0.90;;;0.37;;
37201;SDS011;37799;52.390;6.136;2022-10-01T13:33:19;4.70;;;0.85;;
37201;SDS011;37799;52.390;6.136;2022-10-01T13:35:51;1.17;;;0.20;;
37201;SDS011;37799;52.390;6.136;2022-10-01T13:41:02;1.85;;;0.40;;
37201;SDS011;37799;52.390;6.136;2022-10-01T13:43:30;0.65;;;0.10;;
37201;SDS011;37799;52.390;6.136;2022-10-01T13:46:04;2.92;;;0.20;;
37201;SDS011;37799;52.390;6.136;2022-10-01T13:48:33;3.55;;;0.43;;
37201;SDS011;37799;52.390;6.136;2022-10-01T13:51:01;3.05;;;0.20;;
37201;SDS011;37799;52.390;6.136;2022-10-01T13:56:08;1.60;;;0.20;;
37201;SDS011;37799;52.390;6.136;2022-10-01T13:58:42;4.60;;;0.20;;
37201;SDS011;37799;52.390;6.136;2022-10-01T14:03:46;2.03;;;0.22;;
37201;SDS011;37799;52.390;6.136;2022-10-01T14:06:30;3.47;;;0.57;;
37201;SDS011;37799;52.390;6.136;2022-10-01T14:09:08;1.05;;;0.20;;
37201;SDS011;37799;52.390;6.136;2022-10-01T14:11:41;1.17;;;0.10;;
37201;SDS011;37799;52.390;6.136;2022-10-01T14:14:33;0.40;;;0.08;;
37201;SDS011;37799;52.390;6.136;2022-10-01T14:17:21;1.30;;;0.40;;
37201;SDS011;37799;52.390;6.136;2022-10-01T14:19:50;2.25;;;0.10;;
37201;SDS011;37799;52.390;6.136;2022-10-01T14:22:27;1.80;;;0.22;;
37201;SDS011;37799;52.390;6.136;2022-10-01T14:28:32;5.57;;;0.43;;
37201;SDS011;37799;52.390;6.136;2022-10-01T14:31:06;1.30;;;0.03;;
37201;SDS011;37799;52.390;6.136;2022-10-01T14:33:56;1.83;;;0.10;;
37201;SDS011;37799;52.390;6.136;2022-10-01T14:36:40;0.63;;;0.17;;
37201;SDS011;37799;52.390;6.136;2022-10-01T14:39:17;1.58;;;0.20;;
37201;SDS011;37799;52.390;6.136;2022-10-01T14:41:47;2.33;;;0.13;;
37201;SDS011;37799;52.390;6.136;2022-10-01T14:44:25;4.32;;;0.32;;
37201;SDS011;37799;52.390;6.136;2022-10-01T14:46:53;1.35;;;0.10;;
37201;SDS011;37799;52.390;6.136;2022-10-01T14:49:27;3.13;;;0.13;;
37201;SDS011;37799;52.390;6.136;2022-10-01T14:52:04;1.30;;;0.40;;
37201;SDS011;37799;52.390;6.136;2022-10-01T14:54:36;4.30;;;0.45;;
37201;SDS011;37799;52.390;6.136;2022-10-01T14:57:10;3.42;;;0.20;;
37201;SDS011;37799;52.390;6.136;2022-10-01T14:59:39;2.35;;;0.50;;
37201;SDS011;37799;52.390;6.136;2022-10-01T15:02:16;2.08;;;0.60;;
37201;SDS011;37799;52.390;6.136;2022-10-01T15:04:46;3.78;;;0.20;;
37201;SDS011;37799;52.390;6.136;2022-10-01T15:07:13;2.42;;;0.25;;
37201;SDS011;37799;52.390;6.136;2022-10-01T15:09:41;3.88;;;0.63;;
37201;SDS011;37799;52.390;6.136;2022-10-01T15:12:07;3.22;;;0.32;;
37201;SDS011;37799;52.390;6.136;2022-10-01T15:14:32;5.38;;;0.80;;
37201;SDS011;37799;52.390;6.136;2022-10-01T15:17:03;7.03;;;1.50;;
37201;SDS011;37799;52.390;6.136;2022-10-01T15:19:30;12.83;;;2.57;;
37201;SDS011;37799;52.390;6.136;2022-10-01T15:21:57;5.88;;;0.95;;
37201;SDS011;37799;52.390;6.136;2022-10-01T15:24:41;2.95;;;0.60;;
37201;SDS011;37799;52.390;6.136;2022-10-01T15:27:10;6.28;;;1.02;;
37201;SDS011;37799;52.390;6.136;2022-10-01T15:29:38;5.30;;;1.52;;
37201;SDS011;37799;52.390;6.136;2022-10-01T15:32:05;3.13;;;0.45;;
37201;SDS011;37799;52.390;6.136;2022-10-01T15:34:31;2.33;;;0.20;;
37201;SDS011;37799;52.390;6.136;2022-10-01T15:36:57;1.60;;;0.40;;
37201;SDS011;37799;52.390;6.136;2022-10-01T15:39:39;4.20;;;1.10;;
37201;SDS011;37799;52.390;6.136;2022-10-01T15:42:24;2.53;;;0.20;;
37201;SDS011;37799;52.390;6.136;2022-10-01T15:44:52;4.43;;;0.50;;
37201;SDS011;37799;52.390;6.136;2022-10-01T15:47:39;2.95;;;0.60;;
37201;SDS011;37799;52.390;6.136;2022-10-01T15:50:16;3.35;;;0.20;;
37201;SDS011;37799;52.390;6.136;2022-10-01T15:52:52;1.13;;;0.20;;
37201;SDS011;37799;52.390;6.136;2022-10-01T15:58:04;6.20;;;1.10;;
37201;SDS011;37799;52.390;6.136;2022-10-01T16:03:32;4.40;;;0.90;;
37201;SDS011;37799;52.390;6.136;2022-10-01T16:06:03;13.23;;;3.28;;
37201;SDS011;37799;52.390;6.136;2022-10-01T16:08:48;12.35;;;3.50;;
37201;SDS011;37799;52.390;6.136;2022-10-01T16:11:24;4.93;;;0.88;;
37201;SDS011;37799;52.390;6.136;2022-10-01T16:14:13;1.63;;;0.20;;
37201;SDS011;37799;52.390;6.136;2022-10-01T16:16:45;4.57;;;1.10;;
37201;SDS011;37799;52.390;6.136;2022-10-01T16:19:18;4.60;;;0.68;;
37201;SDS011;37799;52.390;6.136;2022-10-01T16:27:35;6.63;;;0.30;;
37201;SDS011;37799;52.390;6.136;2022-10-01T16:30:10;4.13;;;0.40;;
37201;SDS011;37799;52.390;6.136;2022-10-01T16:32:42;1.92;;;0.30;;
37201;SDS011;37799;52.390;6.136;2022-10-01T16:35:20;4.05;;;0.50;;
37201;SDS011;37799;52.390;6.136;2022-10-01T16:37:49;2.05;;;0.20;;
37201;SDS011;37799;52.390;6.136;2022-10-01T16:40:17;4.45;;;0.38;;
37201;SDS011;37799;52.390;6.136;2022-10-01T16:42:45;5.43;;;1.15;;
37201;SDS011;37799;52.390;6.136;2022-10-01T16:45:17;2.88;;;0.30;;
37201;SDS011;37799;52.390;6.136;2022-10-01T16:47:46;2.88;;;0.28;;
37201;SDS011;37799;52.390;6.136;2022-10-01T16:50:12;3.75;;;0.45;;
37201;SDS011;37799;52.390;6.136;2022-10-01T16:52:40;2.15;;;0.32;;
37201;SDS011;37799;52.390;6.136;2022-10-01T16:55:24;2.65;;;0.22;;
37201;SDS011;37799;52.390;6.136;2022-10-01T16:57:53;4.20;;;0.60;;
37201;SDS011;37799;52.390;6.136;2022-10-01T17:00:20;4.35;;;0.55;;
37201;SDS011;37799;52.390;6.136;2022-10-01T17:02:47;3.15;;;0.35;;
37201;SDS011;37799;52.390;6.136;2022-10-01T17:05:20;3.92;;;1.00;;
37201;SDS011;37799;52.390;6.136;2022-10-01T17:07:50;2.90;;;0.40;;
37201;SDS011;37799;52.390;6.136;2022-10-01T17:10:16;2.47;;;0.25;;
37201;SDS011;37799;52.390;6.136;2022-10-01T17:12:43;2.83;;;0.40;;
37201;SDS011;37799;52.390;6.136;2022-10-01T17:15:10;2.75;;;0.57;;
37201;SDS011;37799;52.390;6.136;2022-10-01T17:17:39;3.40;;;0.30;;
37201;SDS011;37799;52.390;6.136;2022-10-01T17:20:05;2.13;;;0.20;;